createdAt,value
2022-09-13T00:01:04.561Z,23.11
2022-09-13T00:03:33.504Z,23.03
2022-09-13T00:06:09.601Z,22.98
2022-09-13T00:08:38.069Z,22.91
2022-09-13T00:11:07.084Z,22.86
2022-09-13T00:13:36.777Z,22.81
2022-09-13T00:16:05.428Z,22.80
2022-09-13T00:18:34.696Z,22.75
2022-09-13T00:21:08.621Z,22.68
2022-09-13T00:23:37.410Z,22.70
2022-09-13T00:26:07.341Z,22.72
2022-09-13T00:28:37.561Z,22.73
2022-09-13T00:31:08.945Z,22.76
2022-09-13T00:33:37.208Z,22.72
2022-09-13T00:36:07.037Z,22.73
2022-09-13T00:38:37.141Z,22.72
2022-09-13T00:41:06.345Z,22.73
2022-09-13T00:43:49.526Z,22.72
2022-09-13T00:46:27.536Z,22.71
2022-09-13T00:49:00.068Z,22.72
2022-09-13T00:51:29.261Z,22.75
2022-09-13T00:53:59.960Z,22.78
2022-09-13T00:56:34.434Z,22.79
2022-09-13T00:59:10.074Z,22.80
2022-09-13T01:01:45.046Z,22.81
2022-09-13T01:04:13.692Z,22.81
2022-09-13T01:06:43.730Z,22.80
2022-09-13T01:09:13.761Z,22.82
2022-09-13T01:11:50.485Z,22.80
2022-09-13T01:14:21.662Z,22.81
2022-09-13T01:16:50.118Z,22.81
2022-09-13T01:19:18.742Z,22.78
2022-09-13T01:22:32.593Z,22.77
2022-09-13T01:25:28.338Z,22.75
2022-09-13T01:28:23.225Z,22.76
2022-09-13T01:31:00.367Z,22.79
2022-09-13T01:33:46.917Z,22.82
2022-09-13T01:36:49.973Z,22.78
2022-09-13T01:39:30.670Z,22.76
2022-09-13T01:42:12.501Z,22.72
2022-09-13T01:44:54.545Z,22.70
2022-09-13T01:47:28.902Z,22.69
2022-09-13T01:50:13.854Z,22.65
2022-09-13T01:52:50.028Z,22.67
2022-09-13T01:55:30.215Z,22.66
2022-09-13T01:58:07.935Z,22.70
2022-09-13T02:00:42.465Z,22.64
2022-09-13T02:03:15.858Z,22.65
2022-09-13T02:05:48.334Z,22.68
2022-09-13T02:08:20.477Z,22.70
2022-09-13T02:10:54.094Z,22.69
2022-09-13T02:13:25.885Z,22.70
2022-09-13T02:15:59.113Z,22.77
2022-09-13T02:18:33.457Z,22.80
2022-09-13T02:21:05.897Z,22.80
2022-09-13T02:23:40.442Z,22.80
2022-09-13T02:26:10.789Z,22.84
2022-09-13T02:28:42.971Z,22.81
2022-09-13T02:31:13.107Z,22.82
2022-09-13T02:33:46.851Z,22.79
2022-09-13T02:36:18.601Z,22.76
2022-09-13T02:38:55.758Z,22.75
2022-09-13T02:41:31.623Z,22.77
2022-09-13T02:44:08.728Z,22.79
2022-09-13T02:46:53.473Z,22.79
2022-09-13T02:49:30.035Z,22.78
2022-09-13T02:52:07.070Z,22.81
2022-09-13T02:54:39.697Z,22.86
2022-09-13T02:57:13.763Z,22.84
2022-09-13T02:59:41.855Z,22.81
2022-09-13T03:02:14.041Z,22.83
2022-09-13T03:04:43.530Z,22.82
2022-09-13T03:07:13.016Z,22.81
2022-09-13T03:09:47.305Z,22.79
2022-09-13T03:12:41.053Z,22.82
2022-09-13T03:15:18.956Z,22.85
2022-09-13T03:17:55.907Z,22.85
2022-09-13T03:20:37.245Z,22.87
2022-09-13T03:23:21.306Z,22.88
2022-09-13T03:26:03.710Z,22.81
2022-09-13T03:28:38.786Z,22.90
2022-09-13T03:31:12.330Z,22.91
2022-09-13T03:33:48.419Z,22.91
2022-09-13T03:36:22.629Z,22.90
2022-09-13T03:39:00.149Z,22.88
2022-09-13T03:41:33.025Z,22.91
2022-09-13T03:44:05.438Z,22.91
2022-09-13T03:46:39.947Z,22.88
2022-09-13T03:49:11.872Z,22.88
2022-09-13T03:51:42.115Z,22.91
2022-09-13T03:54:16.169Z,22.90
2022-09-13T03:56:44.261Z,22.95
2022-09-13T03:59:12.277Z,22.98
2022-09-13T04:01:40.273Z,22.98
2022-09-13T04:04:08.311Z,23.01
2022-09-13T04:06:36.471Z,23.02
2022-09-13T04:09:05.910Z,23.01
2022-09-13T04:11:33.921Z,23.00
2022-09-13T04:14:03.777Z,23.03
2022-09-13T04:16:31.820Z,23.02
2022-09-13T04:19:00.117Z,23.02
2022-09-13T04:21:28.146Z,23.03
2022-09-13T04:23:56.291Z,23.05
2022-09-13T04:26:25.660Z,23.08
2022-09-13T04:28:54.197Z,23.08
2022-09-13T04:31:22.301Z,23.10
2022-09-13T04:33:51.122Z,23.08
2022-09-13T04:36:19.195Z,23.07
2022-09-13T04:38:48.172Z,23.05
2022-09-13T04:41:17.335Z,23.05
2022-09-13T04:43:50.479Z,23.06
2022-09-13T04:46:18.731Z,23.03
2022-09-13T04:48:50.024Z,23.01
2022-09-13T04:51:18.821Z,23.02
2022-09-13T04:53:47.015Z,23.00
2022-09-13T04:56:15.581Z,22.99
2022-09-13T04:58:43.586Z,22.98
2022-09-13T05:01:13.207Z,22.97
2022-09-13T05:03:41.278Z,22.92
2022-09-13T05:06:11.401Z,22.94
2022-09-13T05:08:39.974Z,22.98
2022-09-13T05:11:08.794Z,22.98
2022-09-13T05:13:37.401Z,22.99
2022-09-13T05:16:07.730Z,23.00
2022-09-13T05:18:40.927Z,23.01
2022-09-13T05:21:12.574Z,22.99
2022-09-13T05:23:40.616Z,22.99
2022-09-13T05:26:08.992Z,22.99
2022-09-13T05:28:38.350Z,23.05
2022-09-13T05:31:08.454Z,23.03
2022-09-13T05:33:39.513Z,23.07
2022-09-13T05:36:08.581Z,23.07
2022-09-13T05:38:36.638Z,23.05
2022-09-13T05:41:06.750Z,23.05
2022-09-13T05:43:36.465Z,23.01
2022-09-13T05:46:06.827Z,22.97
2022-09-13T05:48:37.252Z,22.98
2022-09-13T05:51:07.205Z,22.99
2022-09-13T05:53:35.779Z,22.97
2022-09-13T05:56:04.098Z,22.96
2022-09-13T05:58:32.137Z,22.93
2022-09-13T06:01:00.258Z,22.94
2022-09-13T06:03:28.268Z,22.95
2022-09-13T06:05:58.689Z,22.93
2022-09-13T06:08:28.885Z,22.90
2022-09-13T06:10:58.578Z,22.95
2022-09-13T06:13:27.400Z,22.99
2022-09-13T06:15:56.433Z,22.91
2022-09-13T06:18:26.182Z,22.85
2022-09-13T06:21:01.309Z,22.83
2022-09-13T06:23:29.780Z,22.81
2022-09-13T06:26:02.751Z,22.84
2022-09-13T06:28:33.255Z,22.85
2022-09-13T06:31:06.787Z,22.88
2022-09-13T06:33:35.651Z,22.91
2022-09-13T06:36:07.226Z,22.97
2022-09-13T06:38:35.266Z,22.94
2022-09-13T06:41:04.644Z,22.92
2022-09-13T06:43:32.920Z,22.93
2022-09-13T06:46:02.265Z,22.92
2022-09-13T06:48:33.079Z,22.98
2022-09-13T06:51:01.716Z,23.03
2022-09-13T06:53:31.558Z,23.10
2022-09-13T06:56:03.634Z,23.20
2022-09-13T06:58:32.755Z,23.26
2022-09-13T07:01:10.695Z,23.29
2022-09-13T07:03:39.256Z,23.35
2022-09-13T07:06:19.125Z,23.36
2022-09-13T07:08:52.883Z,23.38
2022-09-13T07:11:23.145Z,23.43
2022-09-13T07:13:51.834Z,23.51
2022-09-13T07:16:21.792Z,23.53
2022-09-13T07:18:53.328Z,23.58
2022-09-13T07:21:22.254Z,23.56
2022-09-13T07:23:52.893Z,23.61
2022-09-13T07:26:21.414Z,23.65
2022-09-13T07:28:52.219Z,23.61
2022-09-13T07:31:22.783Z,23.69
2022-09-13T07:33:56.349Z,23.69
2022-09-13T07:36:25.098Z,23.67
2022-09-13T07:38:54.646Z,23.71
2022-09-13T07:41:24.149Z,23.79
2022-09-13T07:43:52.810Z,23.90
2022-09-13T07:46:22.756Z,23.87
2022-09-13T07:48:53.530Z,23.95
2022-09-13T07:51:23.254Z,24.08
2022-09-13T07:53:57.529Z,24.10
2022-09-13T07:56:27.762Z,24.24
2022-09-13T07:58:56.570Z,24.36
2022-09-13T08:01:26.688Z,24.48
2022-09-13T08:03:56.866Z,24.89
2022-09-13T08:06:26.838Z,25.18
2022-09-13T08:08:56.679Z,25.37
2022-09-13T08:11:26.495Z,25.64
2022-09-13T08:13:55.063Z,25.81
2022-09-13T08:16:25.166Z,25.63
2022-09-13T08:18:55.361Z,25.35
2022-09-13T08:21:24.498Z,25.34
2022-09-13T08:24:00.380Z,25.57
2022-09-13T08:26:28.953Z,25.86
2022-09-13T08:28:59.181Z,26.22
2022-09-13T08:31:28.057Z,26.38
2022-09-13T08:33:57.766Z,26.51
2022-09-13T08:36:26.577Z,26.72
2022-09-13T08:38:59.098Z,26.81
2022-09-13T08:41:53.588Z,26.75
2022-09-13T08:44:28.729Z,26.75
2022-09-13T08:47:03.718Z,26.66
2022-09-13T08:49:35.414Z,26.52
2022-09-13T08:52:17.974Z,26.80
2022-09-13T08:54:47.530Z,27.10
2022-09-13T08:57:19.413Z,27.32
2022-09-13T08:59:57.567Z,27.52
2022-09-13T09:02:46.616Z,27.67
2022-09-13T09:05:18.532Z,27.86
2022-09-13T09:07:48.418Z,27.98
2022-09-13T09:10:21.449Z,28.19
2022-09-13T09:12:54.630Z,28.39
2022-09-13T09:15:25.735Z,28.52
2022-09-13T09:17:58.749Z,28.42
2022-09-13T09:20:32.815Z,28.61
2022-09-13T09:23:06.405Z,29.07
2022-09-13T09:25:36.504Z,29.12
2022-09-13T09:28:13.176Z,29.20
2022-09-13T09:30:50.558Z,29.33
2022-09-13T09:33:31.921Z,29.08
2022-09-13T09:36:04.911Z,28.99
2022-09-13T09:38:37.124Z,28.56
2022-09-13T09:41:13.963Z,28.17
2022-09-13T09:43:46.890Z,27.71
2022-09-13T09:46:17.898Z,28.08
2022-09-13T09:48:52.874Z,28.73
2022-09-13T09:51:24.253Z,29.06
2022-09-13T09:53:56.794Z,28.91
2022-09-13T09:56:29.922Z,28.29
2022-09-13T09:58:58.000Z,28.19
2022-09-13T10:01:28.208Z,28.30
2022-09-13T10:04:05.981Z,28.19
2022-09-13T10:06:34.415Z,27.89
2022-09-13T10:09:05.578Z,27.96
2022-09-13T10:11:47.653Z,28.82
2022-09-13T10:14:31.272Z,29.82
2022-09-13T10:17:07.853Z,30.53
2022-09-13T10:19:36.405Z,30.85
2022-09-13T10:22:06.807Z,31.31
2022-09-13T10:24:34.927Z,31.89
2022-09-13T10:27:05.515Z,31.79
2022-09-13T10:29:34.450Z,31.87
2022-09-13T10:32:12.964Z,32.18
2022-09-13T10:34:45.440Z,32.02
2022-09-13T10:37:19.385Z,31.15
2022-09-13T10:39:56.890Z,30.30
2022-09-13T10:42:28.444Z,30.53
2022-09-13T10:44:58.442Z,31.28
2022-09-13T10:47:29.007Z,31.72
2022-09-13T10:49:59.378Z,31.46
2022-09-13T10:52:34.345Z,30.78
2022-09-13T10:55:30.368Z,30.11
2022-09-13T11:01:31.509Z,28.95
2022-09-13T11:04:49.994Z,28.27
2022-09-13T11:07:43.811Z,27.88
2022-09-13T11:10:21.474Z,28.58
2022-09-13T11:12:56.573Z,29.71
2022-09-13T11:15:36.484Z,30.69
2022-09-13T11:18:29.908Z,31.25
2022-09-13T11:21:08.986Z,31.67
2022-09-13T11:24:08.472Z,32.08
2022-09-13T11:26:53.868Z,31.72
2022-09-13T11:29:38.130Z,31.19
2022-09-13T11:32:21.500Z,30.55
2022-09-13T11:35:27.322Z,29.74
2022-09-13T11:38:04.534Z,29.65
2022-09-13T11:40:41.573Z,29.33
2022-09-13T11:43:28.719Z,29.63
2022-09-13T11:46:04.772Z,30.21
2022-09-13T11:49:07.206Z,30.63
2022-09-13T11:51:51.032Z,30.95
2022-09-13T11:54:32.805Z,31.38
2022-09-13T11:57:05.127Z,31.54
2022-09-13T11:59:40.094Z,31.89
2022-09-13T12:02:21.043Z,32.43
2022-09-13T12:05:20.633Z,32.57
2022-09-13T12:07:48.888Z,32.49
2022-09-13T12:10:21.991Z,31.95
2022-09-13T12:12:52.848Z,31.18
2022-09-13T12:15:28.581Z,31.22
2022-09-13T12:18:03.264Z,31.27
2022-09-13T12:20:36.598Z,31.57
2022-09-13T12:23:13.262Z,32.13
2022-09-13T12:25:47.941Z,32.55
2022-09-13T12:28:22.735Z,32.66
2022-09-13T12:30:55.559Z,32.67
2022-09-13T12:33:23.971Z,32.63
2022-09-13T12:36:11.011Z,32.43
2022-09-13T12:39:11.510Z,32.30
2022-09-13T12:41:50.723Z,31.68
2022-09-13T12:44:42.594Z,31.39
2022-09-13T12:47:41.238Z,31.34
2022-09-13T12:50:43.481Z,31.25
2022-09-13T12:53:28.431Z,31.20
2022-09-13T12:56:10.641Z,30.56
2022-09-13T12:58:56.426Z,30.08
2022-09-13T13:01:27.135Z,29.94
2022-09-13T13:03:58.185Z,29.75
2022-09-13T13:06:34.766Z,29.65
2022-09-13T13:09:06.079Z,29.60
2022-09-13T13:11:46.627Z,29.62
2022-09-13T13:14:45.349Z,29.53
2022-09-13T13:17:36.690Z,29.32
2022-09-13T13:20:38.084Z,29.01
2022-09-13T13:23:18.562Z,29.07
2022-09-13T13:26:02.209Z,29.17
2022-09-13T13:29:04.868Z,28.98
2022-09-13T13:31:38.973Z,28.86
2022-09-13T13:34:35.141Z,28.63
2022-09-13T13:37:07.891Z,28.47
2022-09-13T13:39:41.916Z,28.39
2022-09-13T13:42:25.004Z,28.27
2022-09-13T13:45:16.699Z,28.14
2022-09-13T13:48:10.466Z,28.09
2022-09-13T13:51:12.080Z,27.98
2022-09-13T13:53:43.071Z,27.90
2022-09-13T13:56:22.759Z,28.08
2022-09-13T13:58:55.730Z,28.09
2022-09-13T14:01:28.587Z,28.23
2022-09-13T14:04:26.584Z,28.27
2022-09-13T14:07:18.261Z,28.16
2022-09-13T14:09:55.921Z,27.96
2022-09-13T14:12:36.316Z,27.91
2022-09-13T14:15:22.276Z,27.96
2022-09-13T14:18:12.204Z,28.01
2022-09-13T14:20:57.922Z,28.06
2022-09-13T14:23:27.112Z,28.19
2022-09-13T14:25:57.551Z,28.05
2022-09-13T14:28:26.521Z,28.17
2022-09-13T14:30:57.709Z,28.27
2022-09-13T14:33:33.225Z,28.39
2022-09-13T14:36:05.091Z,28.46
2022-09-13T14:38:35.736Z,28.42
2022-09-13T14:41:14.601Z,28.40
2022-09-13T14:43:43.625Z,28.44
2022-09-13T14:46:15.504Z,28.34
2022-09-13T14:48:51.507Z,28.04
2022-09-13T14:51:23.793Z,27.81
2022-09-13T14:53:55.215Z,27.78
2022-09-13T14:56:34.378Z,27.70
2022-09-13T14:59:06.746Z,27.72
2022-09-13T15:01:37.165Z,27.70
2022-09-13T15:04:07.885Z,27.60
2022-09-13T15:06:39.378Z,27.59
2022-09-13T15:09:28.896Z,27.65
2022-09-13T15:11:59.699Z,27.60
2022-09-13T15:14:31.292Z,27.54
2022-09-13T15:17:03.129Z,27.43
2022-09-13T15:19:39.394Z,27.40
2022-09-13T15:22:16.711Z,27.27
2022-09-13T15:24:48.396Z,27.12
2022-09-13T15:27:29.056Z,26.86
2022-09-13T15:30:00.590Z,26.80
2022-09-13T15:32:34.849Z,26.72
2022-09-13T15:35:04.756Z,26.67
2022-09-13T15:37:36.999Z,26.55
2022-09-13T15:40:22.721Z,26.52
2022-09-13T15:42:53.951Z,26.56
2022-09-13T15:45:23.671Z,26.45
2022-09-13T15:47:53.842Z,26.33
2022-09-13T15:50:29.227Z,26.24
2022-09-13T15:52:58.586Z,26.16
2022-09-13T15:55:29.499Z,26.08
2022-09-13T15:57:58.182Z,26.09
2022-09-13T16:00:29.743Z,25.94
2022-09-13T16:02:58.183Z,25.68
2022-09-13T16:05:27.874Z,25.66
2022-09-13T16:07:58.956Z,25.66
2022-09-13T16:10:27.361Z,25.68
2022-09-13T16:12:55.958Z,25.77
2022-09-13T16:15:24.289Z,25.84
2022-09-13T16:17:53.154Z,25.82
2022-09-13T16:20:21.706Z,25.78
2022-09-13T16:22:51.325Z,25.67
2022-09-13T16:25:19.667Z,25.57
2022-09-13T16:27:51.071Z,25.51
2022-09-13T16:30:22.300Z,25.43
2022-09-13T16:32:51.005Z,25.29
2022-09-13T16:35:19.498Z,25.22
2022-09-13T16:37:51.432Z,25.22
2022-09-13T16:40:21.770Z,25.17
2022-09-13T16:42:50.097Z,25.10
2022-09-13T16:45:18.680Z,25.05
2022-09-13T16:47:47.212Z,25.00
2022-09-13T16:50:15.980Z,24.93
2022-09-13T16:52:44.907Z,24.95
2022-09-13T16:55:13.323Z,24.99
2022-09-13T16:57:44.695Z,25.06
2022-09-13T17:00:14.565Z,25.03
2022-09-13T17:02:42.913Z,24.93
2022-09-13T17:05:11.592Z,24.89
2022-09-13T17:07:40.494Z,24.91
2022-09-13T17:10:12.006Z,24.90
2022-09-13T17:12:41.005Z,24.84
2022-09-13T17:15:11.789Z,24.74
2022-09-13T17:17:40.192Z,24.59
2022-09-13T17:20:12.241Z,24.46
2022-09-13T17:22:41.354Z,24.39
2022-09-13T17:25:11.373Z,24.35
2022-09-13T17:27:39.726Z,24.31
2022-09-13T17:30:13.049Z,24.27
2022-09-13T17:32:42.049Z,24.19
2022-09-13T17:35:12.118Z,24.16
2022-09-13T17:38:06.866Z,24.08
2022-09-13T17:41:12.267Z,24.02
2022-09-13T17:44:24.060Z,23.91
2022-09-13T17:47:34.067Z,23.75
2022-09-13T17:50:31.987Z,23.61
2022-09-13T17:53:39.248Z,23.44
2022-09-13T17:56:53.180Z,23.24
2022-09-13T17:59:55.142Z,23.07
2022-09-13T18:03:00.564Z,22.90
2022-09-13T18:05:34.347Z,22.75
2022-09-13T18:08:03.103Z,22.64
2022-09-13T18:10:58.049Z,22.56
2022-09-13T18:13:20.184Z,22.49
2022-09-13T18:15:59.192Z,22.39
2022-09-13T18:18:29.311Z,22.28
2022-09-13T18:20:58.395Z,22.18
2022-09-13T18:23:28.636Z,22.11
2022-09-13T18:26:03.465Z,22.04
2022-09-13T18:28:35.652Z,22.01
2022-09-13T18:31:06.002Z,21.94
2022-09-13T18:33:36.018Z,21.93
2022-09-13T18:36:07.031Z,21.99
2022-09-13T18:38:38.167Z,22.05
2022-09-13T18:41:08.878Z,22.12
2022-09-13T18:43:38.770Z,22.14
2022-09-13T18:46:09.985Z,22.12
2022-09-13T18:48:42.270Z,22.13
2022-09-13T18:51:12.540Z,22.17
2022-09-13T18:53:41.436Z,22.16
2022-09-13T18:56:11.973Z,22.11
2022-09-13T18:58:42.425Z,21.99
2022-09-13T19:01:13.711Z,21.92
2022-09-13T19:03:51.583Z,21.87
2022-09-13T19:06:22.167Z,21.83
2022-09-13T19:08:51.979Z,21.78
2022-09-13T19:11:44.795Z,21.75
2022-09-13T19:14:10.977Z,21.74
2022-09-13T19:16:39.403Z,21.74
2022-09-13T19:19:09.353Z,21.74
2022-09-13T19:21:39.048Z,21.73
2022-09-13T19:24:11.667Z,21.72
2022-09-13T19:26:41.507Z,21.68
2022-09-13T19:29:13.398Z,21.62
2022-09-13T19:31:43.717Z,21.51
2022-09-13T19:34:15.557Z,21.46
2022-09-13T19:36:44.403Z,21.45
2022-09-13T19:39:13.206Z,21.44
2022-09-13T19:41:42.160Z,21.42
2022-09-13T19:44:12.661Z,21.43
2022-09-13T19:46:42.037Z,21.43
2022-09-13T19:49:15.152Z,21.50
2022-09-13T19:51:48.839Z,21.58
2022-09-13T19:54:19.550Z,21.59
2022-09-13T19:56:47.918Z,21.63
2022-09-13T19:59:19.758Z,21.64
2022-09-13T20:01:48.839Z,21.64
2022-09-13T20:04:20.945Z,21.62
2022-09-13T20:06:51.889Z,21.66
2022-09-13T20:09:21.652Z,21.66
2022-09-13T20:11:50.334Z,21.67
2022-09-13T20:14:20.278Z,21.69
2022-09-13T20:16:48.722Z,21.66
2022-09-13T20:22:09.577Z,21.57
2022-09-13T20:24:37.648Z,21.48
2022-09-13T20:27:06.194Z,21.40
2022-09-13T20:29:34.268Z,21.32
2022-09-13T20:32:02.629Z,21.23
2022-09-13T20:34:32.186Z,21.17
2022-09-13T20:37:00.158Z,21.09
2022-09-13T20:39:28.245Z,20.98
2022-09-13T20:41:56.285Z,20.95
2022-09-13T20:44:24.259Z,20.94
2022-09-13T20:46:52.283Z,20.96
2022-09-13T20:49:21.465Z,20.95
2022-09-13T20:51:50.994Z,21.00
2022-09-13T20:54:19.330Z,21.05
2022-09-13T20:56:47.583Z,21.09
2022-09-13T20:59:15.854Z,21.13
2022-09-13T21:01:44.315Z,21.15
2022-09-13T21:04:12.396Z,21.16
2022-09-13T21:07:02.636Z,21.15
2022-09-13T21:09:32.511Z,21.16
2022-09-13T21:12:01.869Z,21.13
2022-09-13T21:14:34.035Z,21.09
2022-09-13T21:17:06.528Z,21.09
2022-09-13T21:19:34.904Z,21.08
2022-09-13T21:22:03.424Z,21.06
2022-09-13T21:24:32.826Z,21.05
2022-09-13T21:27:01.009Z,21.00
2022-09-13T21:29:29.137Z,20.96
2022-09-13T21:31:57.089Z,20.99
2022-09-13T21:34:27.289Z,21.01
2022-09-13T21:36:55.863Z,21.00
2022-09-13T21:39:24.606Z,20.98
2022-09-13T21:41:54.057Z,20.93
2022-09-13T21:44:22.169Z,20.86
2022-09-13T21:46:51.446Z,20.81
2022-09-13T21:49:20.254Z,20.73
2022-09-13T21:51:49.759Z,20.65
2022-09-13T21:54:19.583Z,20.60
2022-09-13T21:56:50.894Z,20.54
2022-09-13T21:59:21.928Z,20.47
2022-09-13T22:01:52.016Z,20.37
2022-09-13T22:04:22.264Z,20.29
2022-09-13T22:06:53.623Z,20.24
2022-09-13T22:09:24.675Z,20.19
2022-09-13T22:11:52.770Z,20.10
2022-09-13T22:14:22.599Z,20.04
2022-09-13T22:16:52.606Z,20.01
2022-09-13T22:19:23.578Z,19.95
2022-09-13T22:21:54.375Z,19.91
2022-09-13T22:24:24.774Z,19.88
2022-09-13T22:26:54.129Z,19.83
2022-09-13T22:29:23.930Z,19.80
2022-09-13T22:31:52.793Z,19.75
2022-09-13T22:34:23.093Z,19.71
2022-09-13T22:36:51.734Z,19.65
2022-09-13T22:39:19.766Z,19.59
2022-09-13T22:41:47.770Z,19.52
2022-09-13T22:44:16.026Z,19.51
2022-09-13T22:46:47.259Z,19.48
2022-09-13T22:49:16.813Z,19.44
2022-09-13T22:51:46.063Z,19.45
2022-09-13T22:54:14.678Z,19.48
2022-09-13T22:56:42.951Z,19.48
2022-09-13T22:59:13.929Z,19.50
2022-09-13T23:01:42.591Z,19.52
2022-09-13T23:04:12.628Z,19.52
2022-09-13T23:06:43.687Z,19.50
2022-09-13T23:09:14.205Z,19.50
2022-09-13T23:11:42.434Z,19.51
2022-09-13T23:14:12.615Z,19.50
2022-09-13T23:16:43.149Z,19.50
2022-09-13T23:19:14.061Z,19.46
2022-09-13T23:21:42.692Z,19.46
2022-09-13T23:24:14.093Z,19.45
2022-09-13T23:26:42.508Z,19.43
2022-09-13T23:29:13.718Z,19.35
2022-09-13T23:31:43.512Z,19.32
2022-09-13T23:34:14.368Z,19.33
2022-09-13T23:36:44.005Z,19.31
2022-09-13T23:39:17.411Z,19.30
2022-09-13T23:41:46.430Z,19.27
2022-09-13T23:44:15.150Z,19.23
2022-09-13T23:46:44.392Z,19.21
2022-09-13T23:49:13.902Z,19.20
2022-09-13T23:51:41.926Z,19.16
2022-09-13T23:54:10.518Z,19.13
2022-09-13T23:56:38.499Z,19.11
2022-09-13T23:59:07.450Z,19.08
